Time;durP1;ratioP1;P1;durP2;ratioP2;P2;SDS_P1;SDS_P2;PMS_P1;PMS_P2;Temp;Humidity;BMP_temperature;BMP_pressure;BME280_temperature;BME280_humidity;BME280_pressure;Samples;Min_cycle;Max_cycle;Signal;HPM_P1;HPM_P2
2021/08/05 00:01:36;;;;;;;5.33;4.27;;;18.70;99.90;;;;;;4996284;28;20837;-50
2021/08/05 00:04:03;;;;;;;6.27;3.83;;;18.70;99.90;;;;;;4996717;28;20457;-53
2021/08/05 00:06:30;;;;;;;3.80;3.40;;;18.70;99.90;;;;;;4996288;28;20485;-51
2021/08/05 00:08:57;;;;;;;7.40;4.43;;;18.70;99.90;;;;;;4996787;28;20874;-49
2021/08/05 00:11:25;;;;;;;4.27;3.87;;;18.60;99.90;;;;;;4996281;28;20443;-49
2021/08/05 00:13:52;;;;;;;3.93;3.30;;;18.60;99.90;;;;;;4996483;28;20786;-52
2021/08/05 00:16:18;;;;;;;5.10;4.50;;;18.60;99.90;;;;;;4996627;28;20450;-50
2021/08/05 00:18:45;;;;;;;6.30;3.40;;;18.60;99.90;;;;;;4996439;28;20521;-46
2021/08/05 00:21:12;;;;;;;4.67;3.50;;;18.60;99.90;;;;;;4996776;28;20516;-47
2021/08/05 00:23:38;;;;;;;6.63;4.13;;;18.50;99.90;;;;;;4996400;28;20509;-53
2021/08/05 00:26:05;;;;;;;5.37;4.00;;;18.50;99.90;;;;;;4996478;28;20518;-46
2021/08/05 00:28:34;;;;;;;4.20;3.70;;;18.50;99.90;;;;;;4996840;28;20524;-53
2021/08/05 00:31:00;;;;;;;3.90;3.50;;;18.50;99.90;;;;;;4995241;28;20544;-50
2021/08/05 00:33:30;;;;;;;8.93;3.60;;;18.50;99.90;;;;;;4995144;28;20445;-50
2021/08/05 00:35:56;;;;;;;6.90;4.00;;;18.40;99.90;;;;;;4995109;28;20469;-46
2021/08/05 00:38:23;;;;;;;5.63;3.70;;;18.40;99.90;;;;;;4995167;28;20450;-50
2021/08/05 00:40:50;;;;;;;4.80;4.00;;;18.40;99.90;;;;;;4995125;28;20515;-47
2021/08/05 00:43:16;;;;;;;4.90;3.97;;;18.40;99.90;;;;;;4994846;28;20466;-49
2021/08/05 00:45:44;;;;;;;4.13;3.73;;;18.40;99.90;;;;;;4995292;28;20800;-48
2021/08/05 00:48:14;;;;;;;4.80;3.60;;;18.40;99.90;;;;;;4995245;28;20446;-47
2021/08/05 00:50:40;;;;;;;6.00;4.33;;;18.30;99.90;;;;;;4996207;28;20448;-48
2021/08/05 00:53:07;;;;;;;5.27;4.20;;;18.30;99.90;;;;;;4995583;28;20477;-49
2021/08/05 00:55:34;;;;;;;4.87;3.80;;;18.30;99.90;;;;;;4995228;28;20442;-47
2021/08/05 00:58:02;;;;;;;5.07;3.77;;;18.30;99.90;;;;;;4995211;28;20458;-47
2021/08/05 01:00:30;;;;;;;8.03;3.33;;;18.30;99.90;;;;;;4994826;28;20450;-49
2021/08/05 01:03:04;;;;;;;5.23;3.37;;;18.30;99.90;;;;;;4994667;28;20458;-50
2021/08/05 01:05:38;;;;;;;4.57;4.17;;;18.30;99.90;;;;;;4994693;28;20961;-47
2021/08/05 01:08:17;;;;;;;4.63;4.23;;;18.30;99.90;;;;;;4994947;28;20513;-52
2021/08/05 01:10:49;;;;;;;4.40;3.47;;;18.30;99.90;;;;;;4995061;28;20803;-48
2021/08/05 01:13:20;;;;;;;7.17;3.63;;;18.30;99.90;;;;;;4995002;28;20446;-49
2021/08/05 01:15:50;;;;;;;4.27;3.33;;;18.30;99.90;;;;;;4994881;28;20461;-51
2021/08/05 01:18:26;;;;;;;5.27;4.00;;;18.30;99.90;;;;;;4994446;28;20915;-51
2021/08/05 01:20:53;;;;;;;4.90;3.30;;;18.30;99.90;;;;;;4994706;28;20449;-48
2021/08/05 01:23:28;;;;;;;3.53;3.10;;;18.30;99.90;;;;;;4994644;28;20492;-51
2021/08/05 01:25:58;;;;;;;4.30;3.53;;;18.30;99.90;;;;;;4994488;28;20481;-46
2021/08/05 01:28:28;;;;;;;6.87;3.60;;;18.30;99.90;;;;;;4994326;28;20891;-50
2021/08/05 01:30:58;;;;;;;4.60;3.67;;;18.30;99.90;;;;;;4994579;28;20450;-51
2021/08/05 01:33:24;;;;;;;6.83;3.67;;;18.30;99.90;;;;;;4994456;28;20788;-49
2021/08/05 01:35:53;;;;;;;3.97;3.57;;;18.40;99.90;;;;;;4994512;28;20450;-49
2021/08/05 01:38:24;;;;;;;4.77;3.10;;;18.40;99.90;;;;;;4994294;28;20585;-46
2021/08/05 01:40:52;;;;;;;4.87;3.80;;;18.30;99.90;;;;;;4994254;28;20447;-51
2021/08/05 01:43:20;;;;;;;4.60;3.33;;;18.30;99.90;;;;;;4994195;28;20500;-52
2021/08/05 01:45:49;;;;;;;7.00;3.30;;;18.30;99.90;;;;;;4994243;28;20998;-50
2021/08/05 01:48:18;;;;;;;3.60;3.30;;;18.30;99.90;;;;;;4994034;28;20453;-50
2021/08/05 01:50:46;;;;;;;3.63;3.00;;;18.30;99.90;;;;;;4994286;28;20866;-46
2021/08/05 01:53:15;;;;;;;5.83;2.57;;;18.30;99.90;;;;;;4994043;28;20478;-51
2021/08/05 01:55:41;;;;;;;3.23;2.63;;;18.30;99.90;;;;;;4996204;28;20465;-46
2021/08/05 01:58:08;;;;;;;3.20;2.57;;;18.30;99.90;;;;;;4997829;28;20520;-50
2021/08/05 02:00:35;;;;;;;9.07;2.70;;;18.30;99.90;;;;;;4997951;28;20450;-52
2021/08/05 02:03:04;;;;;;;4.67;2.90;;;18.30;99.90;;;;;;4998075;28;20484;-50
2021/08/05 02:05:38;;;;;;;4.40;2.60;;;18.30;99.90;;;;;;4997635;28;20491;-47
2021/08/05 02:08:08;;;;;;;4.20;3.10;;;18.30;99.90;;;;;;4997658;28;20453;-47
2021/08/05 02:10:36;;;;;;;5.73;3.00;;;18.20;99.90;;;;;;4997753;28;20839;-47
2021/08/05 02:13:10;;;;;;;2.70;2.40;;;18.20;99.90;;;;;;4997718;28;20519;-48
2021/08/05 02:15:46;;;;;;;4.73;2.80;;;18.20;99.90;;;;;;4997641;28;20527;-47
2021/08/05 02:18:15;;;;;;;4.30;3.10;;;18.20;99.90;;;;;;4997918;28;20430;-47
2021/08/05 02:20:43;;;;;;;3.70;3.10;;;18.20;99.90;;;;;;4997376;28;20461;-48
2021/08/05 02:23:11;;;;;;;4.37;3.27;;;18.20;99.90;;;;;;4997508;28;20450;-47
2021/08/05 02:25:39;;;;;;;4.10;2.17;;;18.10;99.90;;;;;;4997575;28;20445;-52
2021/08/05 02:28:07;;;;;;;4.90;3.30;;;18.10;99.90;;;;;;4997680;28;20465;-46
2021/08/05 02:30:34;;;;;;;3.70;2.67;;;18.10;99.90;;;;;;4997215;28;20512;-46
2021/08/05 02:33:04;;;;;;;4.33;2.80;;;18.10;99.90;;;;;;4997281;28;20457;-50
2021/08/05 02:35:36;;;;;;;5.13;2.83;;;18.10;99.90;;;;;;4997425;28;20779;-48
2021/08/05 02:38:03;;;;;;;3.57;3.27;;;18.00;99.90;;;;;;4997385;28;20457;-48
2021/08/05 02:40:32;;;;;;;4.43;3.00;;;18.00;99.90;;;;;;4996999;28;20453;-48
2021/08/05 02:43:00;;;;;;;4.20;3.50;;;18.00;99.90;;;;;;4997187;28;20517;-46
2021/08/05 02:45:27;;;;;;;2.97;2.30;;;18.00;99.90;;;;;;4997103;28;20521;-47
2021/08/05 02:47:54;;;;;;;3.23;2.67;;;18.00;99.90;;;;;;4997263;28;20943;-52
2021/08/05 02:50:22;;;;;;;3.63;2.70;;;17.90;99.90;;;;;;4997248;28;20528;-50
2021/08/05 02:52:50;;;;;;;6.80;3.53;;;17.90;99.90;;;;;;4996621;28;20958;-53
2021/08/05 02:55:17;;;;;;;3.00;2.70;;;17.80;99.90;;;;;;4997047;28;20454;-50
2021/08/05 02:57:45;;;;;;;12.40;3.30;;;17.90;99.90;;;;;;4996961;28;20504;-52
2021/08/05 03:00:13;;;;;;;4.10;2.60;;;17.80;99.90;;;;;;4996998;28;20462;-52
2021/08/05 03:02:41;;;;;;;7.13;3.50;;;17.80;99.90;;;;;;4996904;28;20453;-46
2021/08/05 03:05:09;;;;;;;4.93;3.03;;;17.80;99.90;;;;;;4996472;28;20795;-48
2021/08/05 03:07:36;;;;;;;4.50;3.33;;;17.80;99.90;;;;;;4996652;28;20993;-48
2021/08/05 03:10:06;;;;;;;2.70;2.40;;;17.80;99.90;;;;;;4996620;28;20461;-52
2021/08/05 03:12:33;;;;;;;4.87;3.40;;;17.80;99.90;;;;;;4996807;28;20453;-53
2021/08/05 03:15:00;;;;;;;5.03;3.30;;;17.80;99.90;;;;;;4996413;28;20450;-53
2021/08/05 03:17:30;;;;;;;4.53;3.63;;;17.80;99.90;;;;;;4996607;28;20508;-49
2021/08/05 03:19:57;;;;;;;7.63;3.47;;;17.90;99.90;;;;;;4996718;28;20516;-46
2021/08/05 03:22:23;;;;;;;4.70;3.30;;;17.80;99.90;;;;;;4996530;28;20446;-47
2021/08/05 03:24:52;;;;;;;2.90;2.63;;;17.80;99.90;;;;;;4996629;28;20446;-46
2021/08/05 03:27:20;;;;;;;6.07;2.87;;;17.80;99.90;;;;;;4996169;28;20493;-46
2021/08/05 03:29:47;;;;;;;4.47;3.07;;;17.80;99.90;;;;;;4996361;28;20449;-47
2021/08/05 03:32:15;;;;;;;4.50;3.43;;;17.80;99.90;;;;;;4996704;28;20461;-48
2021/08/05 03:34:42;;;;;;;7.70;3.57;;;17.80;99.90;;;;;;4996633;28;20849;-49
2021/08/05 03:37:08;;;;;;;3.37;3.07;;;17.80;99.90;;;;;;4996288;28;20446;-47
2021/08/05 03:39:35;;;;;;;3.50;3.20;;;17.80;99.90;;;;;;4997160;28;20457;-47
2021/08/05 03:42:02;;;;;;;5.00;3.60;;;17.70;99.90;;;;;;4997913;28;20966;-47
2021/08/05 03:44:30;;;;;;;5.47;3.63;;;17.80;99.90;;;;;;4997162;28;20521;-52
2021/08/05 03:46:57;;;;;;;4.43;3.27;;;17.80;99.90;;;;;;4995923;28;20496;-52
2021/08/05 03:49:23;;;;;;;3.70;3.23;;;17.80;99.90;;;;;;4996136;28;20453;-51
2021/08/05 03:51:50;;;;;;;4.70;3.10;;;17.70;99.90;;;;;;4995810;28;20470;-50
2021/08/05 03:54:21;;;;;;;5.63;3.20;;;17.70;99.90;;;;;;4995920;28;20486;-46
2021/08/05 03:56:47;;;;;;;4.20;3.33;;;17.70;99.90;;;;;;4995707;28;20457;-46
2021/08/05 03:59:14;;;;;;;3.83;3.43;;;17.70;99.90;;;;;;4995830;28;20454;-48
2021/08/05 04:01:42;;;;;;;5.30;3.10;;;17.70;99.90;;;;;;4995599;28;20453;-48
2021/08/05 04:04:09;;;;;;;4.20;3.80;;;17.70;99.90;;;;;;4995581;28;20450;-46
2021/08/05 04:06:35;;;;;;;3.73;3.00;;;17.70;99.90;;;;;;4995899;28;20486;-46
2021/08/05 04:09:09;;;;;;;6.47;3.50;;;17.70;99.90;;;;;;4995554;28;20457;-50
2021/08/05 04:11:35;;;;;;;7.00;3.73;;;17.70;99.90;;;;;;4995549;28;20605;-50
2021/08/05 04:14:02;;;;;;;4.33;3.20;;;17.70;99.90;;;;;;4996153;28;20528;-51
2021/08/05 04:16:30;;;;;;;5.33;3.47;;;17.80;99.90;;;;;;4995444;28;20777;-49
2021/08/05 04:18:58;;;;;;;3.90;3.47;;;17.70;99.90;;;;;;4995261;28;20462;-50
2021/08/05 04:21:25;;;;;;;4.70;2.80;;;17.70;99.90;;;;;;4995475;28;21013;-46
2021/08/05 04:23:53;;;;;;;7.23;3.90;;;17.70;99.90;;;;;;4995561;28;20934;-51
2021/08/05 04:26:20;;;;;;;4.50;3.60;;;17.80;99.90;;;;;;4995561;28;20489;-49
2021/08/05 04:28:50;;;;;;;3.93;3.00;;;17.80;99.90;;;;;;4995373;28;20789;-50
2021/08/05 04:31:16;;;;;;;5.47;3.87;;;17.80;99.90;;;;;;4995920;28;20450;-50
2021/08/05 04:33:43;;;;;;;4.17;3.67;;;17.80;99.90;;;;;;4995298;28;20450;-51
2021/08/05 04:36:11;;;;;;;7.13;3.13;;;17.80;99.90;;;;;;4996351;28;20478;-44
2021/08/05 04:38:38;;;;;;;3.67;2.77;;;17.80;99.90;;;;;;4995686;28;20514;-47
2021/08/05 04:41:04;;;;;;;6.17;3.40;;;17.90;99.90;;;;;;4995783;28;20449;-50
2021/08/05 04:43:31;;;;;;;5.43;4.00;;;17.90;99.90;;;;;;4995716;28;20462;-45
2021/08/05 04:45:58;;;;;;;5.63;4.27;;;17.90;99.90;;;;;;4995472;28;20450;-45
2021/08/05 04:48:27;;;;;;;5.63;4.83;;;17.90;99.90;;;;;;4995792;28;20481;-43
2021/08/05 04:50:54;;;;;;;6.07;3.90;;;17.90;99.90;;;;;;4995454;28;20497;-43
2021/08/05 04:53:22;;;;;;;6.20;3.57;;;17.90;99.90;;;;;;4995505;28;20824;-43
2021/08/05 04:55:49;;;;;;;8.10;3.53;;;17.90;99.90;;;;;;4995796;28;20454;-49
2021/08/05 04:58:15;;;;;;;4.30;3.07;;;17.90;99.90;;;;;;4995873;28;20462;-45
2021/08/05 05:00:43;;;;;;;4.90;3.63;;;17.90;99.90;;;;;;4995301;28;20458;-44
2021/08/05 05:03:11;;;;;;;5.00;3.60;;;17.90;99.90;;;;;;4995710;28;20486;-43
2021/08/05 05:05:39;;;;;;;3.63;3.33;;;17.90;99.90;;;;;;4995571;28;20449;-45
2021/08/05 05:08:18;;;;;;;6.30;4.60;;;17.90;99.90;;;;;;4997649;28;20497;-45
2021/08/05 05:10:47;;;;;;;4.57;3.33;;;18.00;99.90;;;;;;4997263;28;20802;-44
2021/08/05 05:13:14;;;;;;;5.90;3.90;;;18.00;99.90;;;;;;4997901;28;20426;-43
2021/08/05 05:15:42;;;;;;;6.70;4.73;;;18.00;99.90;;;;;;4997248;28;20512;-43
2021/08/05 05:18:09;;;;;;;6.10;4.90;;;18.10;99.90;;;;;;4997563;28;20446;-42
2021/08/05 05:20:37;;;;;;;5.77;3.53;;;18.10;99.90;;;;;;4997682;28;20963;-45
2021/08/05 05:23:04;;;;;;;5.00;3.60;;;18.20;99.90;;;;;;4996402;28;20442;-43
2021/08/05 05:25:31;;;;;;;7.57;5.40;;;18.30;99.90;;;;;;4983029;28;20498;-43
2021/08/05 05:30:35;;;;;;;6.93;4.73;;;18.40;99.90;;;;;;5017588;23;20477;-44
2021/08/05 05:33:02;;;;;;;8.47;4.43;;;18.40;99.90;;;;;;5001428;28;20521;-43
2021/08/05 05:35:29;;;;;;;8.60;4.60;;;18.50;99.90;;;;;;5001132;28;20442;-45
2021/08/05 05:37:59;;;;;;;8.90;4.60;;;18.50;99.90;;;;;;5001663;28;20524;-44
2021/08/05 05:40:26;;;;;;;5.00;4.50;;;18.50;99.90;;;;;;5000540;28;20477;-46
2021/08/05 05:42:54;;;;;;;6.57;5.23;;;18.60;99.90;;;;;;5000859;28;20450;-44
2021/08/05 05:45:21;;;;;;;7.40;4.00;;;18.70;99.90;;;;;;5000685;28;20453;-43
2021/08/05 05:47:50;;;;;;;9.43;4.50;;;18.70;99.90;;;;;;5000484;28;20567;-47
2021/08/05 05:50:19;;;;;;;7.87;4.87;;;18.70;99.90;;;;;;5000920;28;20524;-45
2021/08/05 05:52:47;;;;;;;7.27;4.27;;;18.80;99.90;;;;;;4999645;28;20819;-42
2021/08/05 05:55:14;;;;;;;5.63;5.03;;;18.80;99.90;;;;;;5000870;28;20786;-41
2021/08/05 05:57:41;;;;;;;7.67;5.20;;;18.90;99.90;;;;;;5001235;28;20473;-44
2021/08/05 06:00:09;;;;;;;7.63;4.47;;;19.00;99.90;;;;;;5000327;28;20827;-42
2021/08/05 06:02:36;;;;;;;10.73;5.23;;;19.10;99.90;;;;;;5000640;28;20472;-49
2021/08/05 06:05:05;;;;;;;7.00;4.63;;;19.10;99.90;;;;;;5000111;28;20457;-46
2021/08/05 06:07:38;;;;;;;8.80;4.17;;;19.30;99.90;;;;;;4998279;28;20481;-44
2021/08/05 06:10:05;;;;;;;13.50;5.40;;;19.40;99.90;;;;;;4997693;28;20504;-41
2021/08/05 06:12:31;;;;;;;7.60;5.07;;;19.50;99.90;;;;;;4998230;28;20523;-41
2021/08/05 06:14:58;;;;;;;6.80;4.97;;;19.50;99.90;;;;;;4998203;28;20446;-47
2021/08/05 06:17:24;;;;;;;12.10;5.50;;;19.60;99.90;;;;;;4997918;28;20528;-44
2021/08/05 06:19:51;;;;;;;5.70;5.10;;;19.70;99.90;;;;;;4998820;28;20441;-43
2021/08/05 06:22:19;;;;;;;7.80;5.23;;;19.70;99.90;;;;;;5000081;28;20449;-42
2021/08/05 06:24:48;;;;;;;11.20;7.47;;;19.80;99.90;;;;;;4998387;28;20449;-45
2021/08/05 06:27:15;;;;;;;6.07;4.90;;;19.90;99.90;;;;;;4999517;28;20539;-43
2021/08/05 06:29:42;;;;;;;10.80;6.20;;;20.00;99.90;;;;;;4997774;28;20477;-42
2021/08/05 06:32:08;;;;;;;8.93;6.03;;;20.10;99.90;;;;;;4998149;28;20442;-44
2021/08/05 06:34:35;;;;;;;10.63;5.40;;;20.20;99.90;;;;;;4998921;28;20458;-46
2021/08/05 06:37:01;;;;;;;5.77;5.20;;;20.20;99.90;;;;;;4998316;28;20442;-47
2021/08/05 06:39:29;;;;;;;8.90;5.80;;;20.30;99.90;;;;;;4998754;28;20512;-48
2021/08/05 06:41:56;;;;;;;6.67;5.10;;;20.30;99.90;;;;;;4996968;28;20461;-43
2021/08/05 06:44:23;;;;;;;6.93;5.50;;;20.40;99.90;;;;;;4997696;28;20907;-44
2021/08/05 06:46:51;;;;;;;7.90;5.73;;;20.50;99.90;;;;;;4997514;28;20450;-43
2021/08/05 06:49:18;;;;;;;8.10;5.20;;;20.60;99.90;;;;;;4997447;28;20516;-47
2021/08/05 06:51:45;;;;;;;7.93;5.53;;;20.70;99.90;;;;;;4997381;28;20485;-42
2021/08/05 06:54:11;;;;;;;7.93;5.57;;;20.80;99.90;;;;;;4997705;28;20453;-46
2021/08/05 06:56:39;;;;;;;8.53;6.03;;;20.90;99.90;;;;;;4997607;28;20458;-46
2021/08/05 06:59:06;;;;;;;10.70;5.77;;;21.00;99.90;;;;;;4997296;28;20450;-47
2021/08/05 07:01:33;;;;;;;9.97;5.70;;;21.10;99.90;;;;;;4998311;28;20434;-43
2021/08/05 07:04:02;;;;;;;6.60;5.67;;;21.20;99.90;;;;;;4997593;28;20464;-44
2021/08/05 07:06:29;;;;;;;6.50;5.17;;;21.30;99.90;;;;;;4997193;28;20484;-47
2021/08/05 07:08:58;;;;;;;10.17;5.63;;;21.40;99.90;;;;;;4996585;28;20481;-47
2021/08/05 07:11:26;;;;;;;10.20;5.90;;;21.50;99.90;;;;;;4996904;28;20446;-47
2021/08/05 07:13:54;;;;;;;8.90;6.50;;;21.50;99.90;;;;;;4997117;28;20493;-44
2021/08/05 07:16:21;;;;;;;6.20;5.47;;;21.60;99.90;;;;;;4997474;28;20532;-46
2021/08/05 07:18:47;;;;;;;10.20;6.20;;;21.80;99.90;;;;;;4996492;28;20460;-44
2021/08/05 07:21:14;;;;;;;8.77;6.53;;;21.90;99.90;;;;;;4996876;28;20450;-42
2021/08/05 07:23:41;;;;;;;10.40;6.37;;;22.00;99.90;;;;;;4996763;28;20461;-42
2021/08/05 07:26:07;;;;;;;8.40;6.27;;;22.20;99.90;;;;;;4996262;28;20446;-50
2021/08/05 07:28:34;;;;;;;7.27;5.97;;;22.30;99.90;;;;;;4996307;28;20954;-45
2021/08/05 07:31:02;;;;;;;6.63;5.40;;;22.50;99.90;;;;;;4995742;28;20473;-50
2021/08/05 07:33:29;;;;;;;10.73;6.80;;;22.70;99.90;;;;;;4992495;28;20450;-47
2021/08/05 07:35:56;;;;;;;6.73;5.70;;;22.90;99.90;;;;;;4996817;28;20442;-46
2021/08/05 07:38:24;;;;;;;9.60;6.10;;;23.10;99.90;;;;;;4997724;28;20452;-46
2021/08/05 07:40:52;;;;;;;5.83;5.13;;;23.30;99.90;;;;;;4996716;28;20835;-43
2021/08/05 07:43:19;;;;;;;11.93;5.43;;;23.30;99.90;;;;;;4996531;28;20450;-48
2021/08/05 07:45:46;;;;;;;8.77;5.50;;;23.50;99.90;;;;;;4996066;28;20450;-48
2021/08/05 07:48:14;;;;;;;6.97;5.20;;;23.90;99.90;;;;;;4996869;28;20486;-50
2021/08/05 07:50:41;;;;;;;6.17;5.57;;;24.50;99.90;;;;;;4996313;28;20450;-48
2021/08/05 07:53:07;;;;;;;5.90;4.97;;;25.30;99.90;;;;;;4997079;28;20450;-48
2021/08/05 07:55:34;;;;;;;7.70;5.70;;;26.30;99.90;;;;;;4996193;28;20469;-45
2021/08/05 07:58:01;;;;;;;7.07;5.20;;;27.40;99.90;;;;;;4996409;28;20442;-44
2021/08/05 08:00:27;;;;;;;5.87;4.57;;;28.60;99.80;;;;;;4996303;28;20434;-47
2021/08/05 08:02:54;;;;;;;6.33;5.50;;;29.80;95.00;;;;;;4996533;28;20466;-46
2021/08/05 08:05:22;;;;;;;9.90;4.47;;;30.90;90.00;;;;;;4996302;28;20446;-45
2021/08/05 08:07:49;;;;;;;5.90;5.30;;;31.70;81.50;;;;;;4996174;28;20560;-47
2021/08/05 08:10:15;;;;;;;9.90;5.47;;;32.30;74.70;;;;;;4995710;28;20520;-49
2021/08/05 08:12:42;;;;;;;6.93;6.00;;;32.60;71.30;;;;;;4996055;28;20449;-45
2021/08/05 08:15:10;;;;;;;8.30;6.17;;;32.90;68.00;;;;;;4995870;28;20501;-48
2021/08/05 08:17:37;;;;;;;6.70;6.10;;;33.30;66.10;;;;;;4995849;28;20446;-45
2021/08/05 08:20:05;;;;;;;9.77;7.00;;;33.30;63.80;;;;;;4995590;28;21000;-49
2021/08/05 08:22:33;;;;;;;7.10;6.30;;;33.40;62.80;;;;;;4995584;28;20524;-47
2021/08/05 08:25:00;;;;;;;7.30;5.77;;;33.30;62.20;;;;;;4996174;28;20816;-46
2021/08/05 08:27:26;;;;;;;7.00;5.37;;;33.10;61.30;;;;;;4996714;28;20476;-45
2021/08/05 08:29:53;;;;;;;10.20;6.10;;;33.10;60.90;;;;;;4995300;28;20489;-48
2021/08/05 08:32:20;;;;;;;11.10;5.97;;;32.90;60.60;;;;;;4995587;28;20820;-45
2021/08/05 08:34:46;;;;;;;7.67;5.27;;;32.50;61.90;;;;;;4995401;28;20461;-44
2021/08/05 08:37:13;;;;;;;6.63;4.87;;;31.90;63.30;;;;;;4995460;28;20470;-43
2021/08/05 08:39:41;;;;;;;8.43;5.37;;;31.20;64.60;;;;;;4995139;28;20508;-42
2021/08/05 08:42:08;;;;;;;6.20;5.60;;;30.60;67.20;;;;;;4991553;28;20447;-45
2021/08/05 08:44:35;;;;;;;8.47;5.90;;;30.20;67.50;;;;;;4975979;28;20459;-47
2021/08/05 08:47:02;;;;;;;10.87;5.47;;;29.80;68.50;;;;;;4975916;28;20497;-47
2021/08/05 08:49:32;;;;;;;6.03;5.43;;;29.50;69.80;;;;;;4975781;28;20495;-44
2021/08/05 08:51:59;;;;;;;13.07;6.00;;;29.30;70.20;;;;;;4975605;28;20557;-45
2021/08/05 08:54:26;;;;;;;10.03;6.00;;;29.30;70.90;;;;;;4975986;28;20451;-50
2021/08/05 08:56:55;;;;;;;9.80;5.60;;;29.50;71.10;;;;;;4976398;28;20924;-44
2021/08/05 08:59:23;;;;;;;9.97;5.67;;;30.10;69.90;;;;;;4975362;28;20537;-47
2021/08/05 09:01:49;;;;;;;5.83;4.50;;;30.70;68.30;;;;;;4975454;28;20533;-43
2021/08/05 09:04:18;;;;;;;9.10;4.77;;;31.30;65.70;;;;;;4975028;28;20486;-48
2021/08/05 09:06:48;;;;;;;5.63;5.13;;;31.50;64.80;;;;;;4975694;28;20455;-46
2021/08/05 09:09:15;;;;;;;12.37;5.60;;;31.90;64.20;;;;;;4975740;28;20483;-45
2021/08/05 09:11:41;;;;;;;6.47;5.30;;;32.40;62.20;;;;;;4975423;28;20465;-46
2021/08/05 09:14:11;;;;;;;5.07;4.03;;;32.70;61.40;;;;;;4975918;28;20900;-43
2021/08/05 09:16:38;;;;;;;5.57;5.07;;;32.90;60.50;;;;;;4975610;28;20478;-44
2021/08/05 09:19:10;;;;;;;6.10;5.17;;;33.20;59.90;;;;;;4976072;28;20549;-47
2021/08/05 09:21:38;;;;;;;6.87;4.40;;;33.30;59.00;;;;;;4975652;28;20501;-46
2021/08/05 09:24:06;;;;;;;6.17;4.73;;;33.40;58.20;;;;;;4975966;28;20451;-49
2021/08/05 09:26:42;;;;;;;5.67;5.10;;;33.60;58.10;;;;;;4975378;28;20462;-44
2021/08/05 09:29:13;;;;;;;6.40;4.90;;;33.50;58.10;;;;;;4974885;28;20487;-42
2021/08/05 09:31:43;;;;;;;4.90;4.07;;;33.50;57.30;;;;;;4975718;28;20426;-45
2021/08/05 09:34:12;;;;;;;6.30;4.23;;;33.50;57.70;;;;;;4989009;28;20454;-45
2021/08/05 09:36:40;;;;;;;6.10;4.10;;;33.60;57.60;;;;;;4994946;28;20541;-44
2021/08/05 09:39:21;;;;;;;6.80;4.90;;;33.60;56.20;;;;;;4995093;28;20856;-45
2021/08/05 09:41:59;;;;;;;4.10;3.70;;;33.40;57.20;;;;;;4994520;28;20446;-44
2021/08/05 09:44:31;;;;;;;5.13;4.63;;;33.40;57.50;;;;;;4994849;28;20449;-46
2021/08/05 09:47:06;;;;;;;4.63;4.20;;;33.40;57.40;;;;;;4995540;28;20864;-47
2021/08/05 09:49:34;;;;;;;5.33;4.80;;;33.40;56.90;;;;;;4996185;28;20484;-44
2021/08/05 09:52:02;;;;;;;4.70;4.30;;;33.30;57.10;;;;;;4995696;28;20524;-43
2021/08/05 09:54:39;;;;;;;4.40;4.00;;;33.20;56.50;;;;;;4994178;28;20969;-46
2021/08/05 09:57:07;;;;;;;8.00;5.70;;;33.10;57.20;;;;;;4990815;28;20667;-42
2021/08/05 09:59:51;;;;;;;7.00;4.30;;;33.00;56.00;;;;;;4994835;28;20516;-48
2021/08/05 10:02:18;;;;;;;6.73;4.30;;;32.50;57.10;;;;;;4994391;28;20470;-51
2021/08/05 10:04:45;;;;;;;10.90;4.70;;;32.20;57.60;;;;;;4994789;28;20430;-48
2021/08/05 10:07:14;;;;;;;7.40;4.07;;;32.10;57.30;;;;;;4994716;28;20454;-46
2021/08/05 10:09:41;;;;;;;6.87;3.90;;;31.80;58.00;;;;;;4994396;28;20867;-45
2021/08/05 10:12:14;;;;;;;4.50;4.00;;;31.70;57.80;;;;;;4980117;28;20446;-45
2021/08/05 10:14:43;;;;;;;4.50;4.10;;;31.60;59.00;;;;;;4975110;28;20458;-43
2021/08/05 10:17:10;;;;;;;4.03;3.73;;;31.50;59.30;;;;;;4978236;28;20545;-48
2021/08/05 10:19:39;;;;;;;5.33;4.03;;;31.60;59.10;;;;;;4978616;28;20454;-47
2021/08/05 10:22:07;;;;;;;11.33;3.70;;;31.70;59.10;;;;;;4978730;28;20742;-47
2021/08/05 10:24:39;;;;;;;4.60;3.77;;;31.70;58.80;;;;;;4978778;28;20538;-48
2021/08/05 10:27:07;;;;;;;4.60;4.20;;;31.90;58.50;;;;;;4978321;28;20455;-49
2021/08/05 10:29:36;;;;;;;7.50;4.60;;;31.70;57.90;;;;;;4977883;28;20990;-45
2021/08/05 10:32:06;;;;;;;8.30;3.53;;;31.30;58.60;;;;;;4978266;28;20458;-46
2021/08/05 10:34:35;;;;;;;3.57;3.27;;;30.90;58.60;;;;;;4978326;28;20836;-46
2021/08/05 10:37:03;;;;;;;6.53;3.80;;;30.60;59.40;;;;;;4978338;28;20820;-44
2021/08/05 10:39:31;;;;;;;7.03;3.87;;;30.30;59.40;;;;;;4977961;28;20446;-45
2021/08/05 10:41:59;;;;;;;4.00;3.70;;;30.10;60.90;;;;;;4978203;28;20842;-43
2021/08/05 10:44:28;;;;;;;6.33;4.37;;;29.90;62.10;;;;;;4978112;28;20455;-48
2021/08/05 10:46:57;;;;;;;14.10;4.40;;;29.70;62.10;;;;;;4977673;28;20447;-44
2021/08/05 10:49:26;;;;;;;5.60;5.10;;;29.50;63.10;;;;;;4978086;28;20537;-46
2021/08/05 10:51:53;;;;;;;7.40;5.47;;;29.50;62.70;;;;;;4978516;28;20513;-47
2021/08/05 10:54:53;;;;;;;5.63;5.07;;;29.50;62.30;;;;;;4978133;28;20795;-42
2021/08/05 10:57:22;;;;;;;4.80;4.40;;;29.40;62.90;;;;;;4978966;28;20459;-43
2021/08/05 11:00:04;;;;;;;4.87;4.40;;;29.00;63.30;;;;;;4979773;28;20439;-48
2021/08/05 11:02:48;;;;;;;4.97;3.97;;;28.60;64.40;;;;;;4978414;28;20513;-47
2021/08/05 11:05:43;;;;;;;4.93;4.23;;;28.40;64.20;;;;;;4977422;28;20447;-47
2021/08/05 11:08:25;;;;;;;4.87;3.40;;;28.30;64.80;;;;;;4971476;28;20465;-47
2021/08/05 11:11:31;;;;;;;6.27;4.30;;;28.30;65.00;;;;;;4977613;28;20461;-49
2021/08/05 11:14:35;;;;;;;5.20;4.37;;;28.40;65.30;;;;;;4977425;28;20459;-49
2021/08/05 11:17:02;;;;;;;4.30;3.80;;;28.20;64.50;;;;;;4975772;28;20955;-44
2021/08/05 11:19:33;;;;;;;4.10;3.70;;;28.20;65.80;;;;;;4977730;28;20519;-44
2021/08/05 11:22:50;;;;;;;6.43;4.70;;;28.20;63.50;;;;;;4977695;28;20768;-48
2021/08/05 11:25:17;;;;;;;4.23;3.90;;;28.20;64.70;;;;;;4977657;28;20450;-46
2021/08/05 11:28:03;;;;;;;4.07;3.53;;;28.20;62.40;;;;;;4977320;28;20450;-43
2021/08/05 11:30:45;;;;;;;6.60;3.50;;;28.30;63.20;;;;;;4976477;28;20494;-48
2021/08/05 11:34:02;;;;;;;6.20;4.20;;;28.30;62.40;;;;;;4977231;28;20470;-45
2021/08/05 11:36:36;;;;;;;5.73;4.40;;;28.40;65.30;;;;;;4977104;28;20880;-48
2021/08/05 11:39:10;;;;;;;4.37;3.97;;;28.30;64.90;;;;;;4977006;28;21006;-47
2021/08/05 11:41:55;;;;;;;3.90;3.40;;;28.20;64.30;;;;;;4976947;28;20932;-46
2021/08/05 11:44:25;;;;;;;6.90;4.90;;;28.20;64.50;;;;;;4977191;28;20447;-47
2021/08/05 11:47:22;;;;;;;4.20;3.80;;;28.10;64.90;;;;;;4976862;28;20927;-44
2021/08/05 11:49:52;;;;;;;5.03;4.03;;;28.00;65.00;;;;;;4976732;28;20507;-45
2021/08/05 11:52:21;;;;;;;7.10;3.90;;;28.00;65.90;;;;;;4977181;28;20896;-46
2021/08/05 11:54:51;;;;;;;4.20;3.50;;;28.00;65.10;;;;;;4976750;28;20442;-44
2021/08/05 11:57:19;;;;;;;6.03;3.37;;;27.90;64.40;;;;;;4976747;28;20522;-46
2021/08/05 11:59:49;;;;;;;5.00;3.30;;;27.90;64.70;;;;;;4976115;28;20793;-47
2021/08/05 12:02:17;;;;;;;3.90;3.60;;;28.10;65.40;;;;;;4976871;28;20455;-45
2021/08/05 12:04:45;;;;;;;7.37;5.37;;;28.20;66.80;;;;;;4976963;28;20481;-48
2021/08/05 12:07:26;;;;;;;5.43;3.63;;;28.40;66.30;;;;;;4977000;28;20474;-44
2021/08/05 12:10:13;;;;;;;5.90;3.70;;;28.40;65.00;;;;;;4977036;28;20501;-50
2021/08/05 12:12:45;;;;;;;5.30;4.10;;;28.40;64.10;;;;;;4976674;28;20446;-48
2021/08/05 12:15:15;;;;;;;3.33;2.90;;;28.10;65.00;;;;;;4976639;28;20553;-47
2021/08/05 12:17:46;;;;;;;3.83;3.53;;;27.80;64.70;;;;;;4982874;28;20458;-45
2021/08/05 12:20:17;;;;;;;3.90;3.60;;;27.70;65.50;;;;;;4995951;28;20803;-51
2021/08/05 12:22:47;;;;;;;4.27;3.57;;;27.80;66.30;;;;;;4995982;28;20465;-47
2021/08/05 12:25:32;;;;;;;4.03;3.73;;;27.80;66.90;;;;;;4976583;28;20474;-50
2021/08/05 12:28:02;;;;;;;3.57;3.27;;;27.80;65.00;;;;;;4976352;28;20472;-47
2021/08/05 12:30:37;;;;;;;6.03;3.70;;;27.80;65.30;;;;;;4976047;28;20873;-44
2021/08/05 12:33:06;;;;;;;3.17;2.87;;;27.70;64.70;;;;;;4976221;28;20564;-46
2021/08/05 12:35:33;;;;;;;5.17;4.20;;;27.70;65.20;;;;;;4976895;28;20474;-54
2021/08/05 12:38:07;;;;;;;5.13;4.30;;;27.60;66.50;;;;;;4975340;28;20513;-50
2021/08/05 12:40:40;;;;;;;4.33;3.97;;;27.50;67.40;;;;;;4976096;28;20764;-50
2021/08/05 12:43:09;;;;;;;5.10;4.50;;;27.40;67.30;;;;;;4975958;28;20438;-51
2021/08/05 12:45:40;;;;;;;4.67;3.70;;;27.30;67.80;;;;;;4975618;28;20442;-50
2021/08/05 12:48:08;;;;;;;6.43;3.80;;;27.30;67.80;;;;;;4975699;28;20447;-54
2021/08/05 12:50:39;;;;;;;6.13;3.67;;;27.30;67.00;;;;;;4975916;28;20486;-54
2021/08/05 12:53:08;;;;;;;5.50;3.57;;;27.20;68.60;;;;;;4976315;28;20454;-47
2021/08/05 12:55:53;;;;;;;4.27;3.70;;;27.20;68.20;;;;;;4975921;28;20457;-55
2021/08/05 12:58:22;;;;;;;4.07;3.70;;;27.10;66.90;;;;;;4975195;28;20458;-53
2021/08/05 13:00:50;;;;;;;4.10;3.70;;;27.10;68.80;;;;;;4975584;28;20816;-48